createdAt,value
2019-05-19T00:00:57.057Z,13.16
2019-05-19T00:01:57.079Z,13.19
2019-05-19T00:02:57.098Z,13.19
2019-05-19T00:03:57.115Z,13.09
2019-05-19T00:04:57.143Z,13.12
2019-05-19T00:05:57.155Z,13.11
2019-05-19T00:06:57.198Z,13.13
2019-05-19T00:07:57.259Z,13.03
2019-05-19T00:08:57.257Z,13.01
2019-05-19T00:09:57.316Z,12.98
2019-05-19T00:10:57.333Z,13.03
2019-05-19T00:11:57.318Z,13.03
2019-05-19T00:12:57.317Z,13.01
2019-05-19T00:13:57.317Z,12.98
2019-05-19T00:14:57.336Z,12.99
2019-05-19T00:15:57.350Z,12.94
2019-05-19T00:16:57.370Z,12.91
2019-05-19T00:17:57.390Z,12.93
2019-05-19T00:18:57.414Z,12.99
2019-05-19T00:19:57.432Z,12.94
2019-05-19T00:20:57.447Z,12.88
2019-05-19T00:21:57.475Z,12.88
2019-05-19T00:22:57.488Z,12.86
2019-05-19T00:23:59.794Z,12.86
2019-05-19T00:24:57.530Z,12.86
2019-05-19T00:25:57.555Z,12.83
2019-05-19T00:26:57.567Z,12.84
2019-05-19T00:27:57.585Z,12.78
2019-05-19T00:28:57.608Z,12.76
2019-05-19T00:29:57.626Z,12.78
2019-05-19T00:30:57.647Z,12.81
2019-05-19T00:31:57.664Z,12.72
2019-05-19T00:32:57.684Z,12.73
2019-05-19T00:33:57.702Z,12.73
2019-05-19T00:34:57.723Z,12.72
2019-05-19T00:35:57.741Z,12.78
2019-05-19T00:36:57.814Z,12.73
2019-05-19T00:37:57.823Z,12.76
2019-05-19T00:38:57.806Z,12.80
2019-05-19T00:39:57.819Z,12.78
2019-05-19T00:40:57.837Z,12.76
2019-05-19T00:41:57.861Z,12.66
2019-05-19T00:42:57.877Z,12.75
2019-05-19T00:43:57.917Z,12.70
2019-05-19T00:44:57.917Z,12.73
2019-05-19T00:45:57.936Z,12.69
2019-05-19T00:46:57.956Z,12.69
2019-05-19T00:47:57.977Z,12.72
2019-05-19T00:48:57.994Z,12.66
2019-05-19T00:49:58.014Z,12.68
2019-05-19T00:50:58.033Z,12.68
2019-05-19T00:51:58.070Z,12.68
2019-05-19T00:52:58.070Z,12.66
2019-05-19T00:53:58.091Z,12.68
2019-05-19T00:54:58.111Z,12.61
2019-05-19T00:55:58.134Z,12.65
2019-05-19T00:56:58.150Z,12.69
2019-05-19T00:57:58.170Z,12.57
2019-05-19T00:58:58.187Z,12.54
2019-05-19T00:59:58.205Z,12.55
2019-05-19T01:00:58.235Z,12.62
2019-05-19T01:01:58.250Z,12.54
2019-05-19T01:02:58.265Z,12.58
2019-05-19T01:03:58.285Z,12.54
2019-05-19T01:04:58.302Z,12.53
2019-05-19T01:05:58.320Z,12.51
2019-05-19T01:06:58.342Z,12.53
2019-05-19T01:07:58.359Z,12.53
2019-05-19T01:08:58.381Z,12.55
2019-05-19T01:09:58.400Z,12.40
2019-05-19T01:10:58.418Z,12.37
2019-05-19T01:11:58.440Z,12.44
2019-05-19T01:12:58.458Z,12.44
2019-05-19T01:13:58.476Z,12.43
2019-05-19T01:14:58.497Z,12.43
2019-05-19T01:15:58.514Z,12.47
2019-05-19T01:16:58.531Z,12.47
2019-05-19T01:17:58.553Z,12.37
2019-05-19T01:18:58.574Z,12.35
2019-05-19T01:19:58.605Z,12.35
2019-05-19T01:20:58.611Z,12.39
2019-05-19T01:21:58.629Z,12.35
2019-05-19T01:22:58.646Z,12.36
2019-05-19T01:23:58.668Z,12.33
2019-05-19T01:24:58.686Z,12.29
2019-05-19T01:25:58.708Z,12.40
2019-05-19T01:26:58.740Z,12.33
2019-05-19T01:27:58.744Z,12.26
2019-05-19T01:28:58.774Z,12.28
2019-05-19T01:29:58.784Z,12.29
2019-05-19T01:30:58.805Z,12.29
2019-05-19T01:31:58.820Z,12.26
2019-05-19T01:32:58.841Z,12.26
2019-05-19T01:33:58.862Z,12.20
2019-05-19T01:34:58.880Z,12.21
2019-05-19T01:35:58.898Z,12.29
2019-05-19T01:36:58.917Z,12.20
2019-05-19T01:37:58.938Z,12.25
2019-05-19T01:38:58.955Z,12.20
2019-05-19T01:39:58.975Z,12.25
2019-05-19T01:40:58.994Z,12.25
2019-05-19T01:41:59.011Z,12.26
2019-05-19T01:42:59.031Z,12.21
2019-05-19T01:43:59.060Z,12.23
2019-05-19T01:44:59.148Z,12.26
2019-05-19T01:45:59.140Z,12.21
2019-05-19T01:46:59.137Z,12.17
2019-05-19T01:47:59.205Z,12.18
2019-05-19T01:48:59.202Z,12.20
2019-05-19T01:50:16.568Z,12.08
2019-05-19T01:50:59.201Z,12.18
2019-05-19T01:51:59.201Z,12.15
2019-05-19T01:52:59.221Z,12.14
2019-05-19T01:53:59.240Z,12.15
2019-05-19T01:54:59.259Z,12.15
2019-05-19T01:55:59.278Z,12.14
2019-05-19T01:56:59.307Z,12.18
2019-05-19T01:57:59.374Z,12.03
2019-05-19T01:58:59.336Z,12.11
2019-05-19T01:59:59.357Z,12.20
2019-05-19T02:00:59.373Z,12.12
2019-05-19T02:01:59.395Z,12.12
2019-05-19T02:02:59.413Z,12.02
2019-05-19T02:03:59.434Z,12.07
2019-05-19T02:04:59.454Z,12.05
2019-05-19T02:05:59.470Z,12.08
2019-05-19T02:06:59.488Z,12.05
2019-05-19T02:07:59.511Z,12.07
2019-05-19T02:08:59.525Z,12.02
2019-05-19T02:09:59.548Z,11.97
2019-05-19T02:10:59.570Z,12.00
2019-05-19T02:11:59.583Z,11.96
2019-05-19T02:12:59.601Z,12.10
2019-05-19T02:13:59.620Z,12.11
2019-05-19T02:14:59.637Z,12.00
2019-05-19T02:15:59.658Z,12.02
2019-05-19T02:16:59.678Z,12.05
2019-05-19T02:17:59.696Z,12.02
2019-05-19T02:18:59.716Z,11.99
2019-05-19T02:19:59.734Z,11.97
2019-05-19T02:20:59.750Z,11.97
2019-05-19T02:21:59.771Z,11.95
2019-05-19T02:22:59.794Z,11.97
2019-05-19T02:23:59.811Z,11.99
2019-05-19T02:24:59.829Z,11.95
2019-05-19T02:25:59.852Z,11.99
2019-05-19T02:26:59.871Z,11.95
2019-05-19T02:27:59.894Z,11.96
2019-05-19T02:28:59.905Z,12.00
2019-05-19T02:29:59.923Z,11.96
2019-05-19T02:30:59.945Z,11.93
2019-05-19T02:31:59.962Z,11.91
2019-05-19T02:32:59.979Z,11.91
2019-05-19T02:34:00.001Z,11.96
2019-05-19T02:35:00.021Z,12.00
2019-05-19T02:36:00.036Z,11.93
2019-05-19T02:37:00.057Z,11.97
2019-05-19T02:38:00.077Z,11.93
2019-05-19T02:39:00.096Z,11.91
2019-05-19T02:40:00.136Z,11.88
2019-05-19T02:41:00.139Z,11.85
2019-05-19T02:42:00.150Z,11.88
2019-05-19T02:43:00.168Z,11.86
2019-05-19T02:44:00.193Z,11.93
2019-05-19T02:45:00.213Z,11.91
2019-05-19T02:46:00.229Z,11.85
2019-05-19T02:47:00.247Z,11.93
2019-05-19T02:48:00.263Z,11.88
2019-05-19T02:49:00.286Z,11.95
2019-05-19T02:50:00.318Z,11.86
2019-05-19T02:51:00.327Z,11.91
2019-05-19T02:52:00.340Z,11.85
2019-05-19T02:53:00.361Z,11.86
2019-05-19T02:54:00.376Z,11.85
2019-05-19T02:55:00.397Z,11.93
2019-05-19T02:56:00.415Z,11.88
2019-05-19T02:57:00.433Z,11.89
2019-05-19T02:58:00.452Z,11.89
2019-05-19T02:59:00.469Z,11.91
2019-05-19T03:00:00.487Z,11.91
2019-05-19T03:01:00.507Z,11.93
2019-05-19T03:02:00.528Z,11.96
2019-05-19T03:03:00.546Z,11.91
2019-05-19T03:04:00.565Z,11.83
2019-05-19T03:05:00.602Z,11.96
2019-05-19T03:06:00.604Z,11.97
2019-05-19T03:07:00.620Z,11.97
2019-05-19T03:08:00.643Z,11.91
2019-05-19T03:09:00.662Z,11.83
2019-05-19T03:10:00.679Z,11.81
2019-05-19T03:11:00.698Z,11.93
2019-05-19T03:12:00.719Z,11.93
2019-05-19T03:13:00.736Z,11.91
2019-05-19T03:14:00.755Z,11.93
2019-05-19T03:15:00.773Z,11.89
2019-05-19T03:16:00.789Z,11.96
2019-05-19T03:17:00.810Z,11.93
2019-05-19T03:18:00.830Z,11.85
2019-05-19T03:19:00.852Z,11.85
2019-05-19T03:20:00.867Z,11.88
2019-05-19T03:21:10.386Z,11.86
2019-05-19T03:22:00.908Z,11.91
2019-05-19T03:23:00.928Z,11.91
2019-05-19T03:24:01.012Z,11.97
2019-05-19T03:25:01.013Z,11.91
2019-05-19T03:26:01.022Z,11.85
2019-05-19T03:27:01.082Z,11.91
2019-05-19T03:28:01.084Z,11.91
2019-05-19T03:29:01.083Z,11.86
2019-05-19T03:30:01.083Z,11.85
2019-05-19T03:31:01.094Z,11.88
2019-05-19T03:32:01.096Z,11.91
2019-05-19T03:33:01.113Z,11.85
2019-05-19T03:34:01.133Z,12.02
2019-05-19T03:35:01.150Z,11.95
2019-05-19T03:36:01.170Z,12.00
2019-05-19T03:37:01.186Z,11.99
2019-05-19T03:38:01.210Z,11.99
2019-05-19T03:39:01.226Z,12.00
2019-05-19T03:40:01.249Z,11.99
2019-05-19T03:41:01.266Z,11.99
2019-05-19T03:42:01.287Z,12.05
2019-05-19T03:43:01.306Z,12.07
2019-05-19T03:44:01.323Z,12.10
2019-05-19T03:45:01.345Z,12.12
2019-05-19T03:46:01.365Z,12.07
2019-05-19T03:47:01.378Z,12.11
2019-05-19T03:48:01.396Z,12.03
2019-05-19T03:49:01.417Z,12.08
2019-05-19T03:50:01.436Z,12.17
2019-05-19T03:51:01.456Z,12.17
2019-05-19T03:52:01.472Z,12.15
2019-05-19T03:53:01.496Z,12.14
2019-05-19T03:54:01.554Z,12.11
2019-05-19T03:55:01.531Z,12.20
2019-05-19T03:56:01.550Z,12.14
2019-05-19T03:57:01.565Z,12.21
2019-05-19T03:58:01.590Z,12.23
2019-05-19T03:59:01.607Z,12.30
2019-05-19T04:00:01.638Z,12.25
2019-05-19T04:01:01.650Z,12.35
2019-05-19T04:02:01.668Z,12.30
2019-05-19T04:03:01.689Z,12.37
2019-05-19T04:04:01.702Z,12.35
2019-05-19T04:05:01.722Z,12.40
2019-05-19T04:06:01.742Z,12.45
2019-05-19T04:07:01.761Z,12.44
2019-05-19T04:08:01.778Z,12.43
2019-05-19T04:09:01.802Z,12.39
2019-05-19T04:10:01.823Z,12.50
2019-05-19T04:11:01.841Z,12.53
2019-05-19T04:12:01.856Z,12.63
2019-05-19T04:13:01.887Z,12.62
2019-05-19T04:14:01.894Z,12.70
2019-05-19T04:15:01.923Z,12.61
2019-05-19T04:16:01.936Z,12.65
2019-05-19T04:17:01.957Z,12.72
2019-05-19T04:18:01.977Z,12.78
2019-05-19T04:19:01.996Z,12.70
2019-05-19T04:20:02.012Z,12.73
2019-05-19T04:21:02.033Z,12.80
2019-05-19T04:22:02.057Z,12.73
2019-05-19T04:23:02.072Z,12.83
2019-05-19T04:24:02.096Z,12.83
2019-05-19T04:25:02.111Z,12.87
2019-05-19T04:26:02.130Z,12.91
2019-05-19T04:27:02.154Z,12.98
2019-05-19T04:28:02.194Z,12.95
2019-05-19T04:29:02.197Z,13.01
2019-05-19T04:30:02.212Z,12.95
2019-05-19T04:31:02.229Z,13.09
2019-05-19T04:32:02.248Z,13.16
2019-05-19T04:33:02.270Z,13.16
2019-05-19T04:34:02.291Z,13.13
2019-05-19T04:35:02.313Z,13.17
2019-05-19T04:36:02.344Z,13.13
2019-05-19T04:37:02.356Z,13.20
2019-05-19T04:38:02.383Z,13.21
2019-05-19T04:39:02.390Z,13.33
2019-05-19T04:40:02.411Z,13.33
2019-05-19T04:41:02.435Z,13.36
2019-05-19T04:42:02.450Z,13.46
2019-05-19T04:43:02.549Z,13.47
2019-05-19T04:44:02.489Z,13.52
2019-05-19T04:45:02.523Z,13.55
2019-05-19T04:46:02.540Z,13.55
2019-05-19T04:47:02.566Z,13.68
2019-05-19T04:48:02.571Z,13.65
2019-05-19T04:49:02.591Z,13.75
2019-05-19T04:50:02.611Z,13.76
2019-05-19T04:51:02.648Z,13.85
2019-05-19T04:52:06.563Z,13.87
2019-05-19T04:53:02.672Z,13.94
2019-05-19T04:54:02.694Z,13.97
2019-05-19T04:55:02.715Z,14.00
2019-05-19T04:56:02.732Z,14.04
2019-05-19T04:57:02.754Z,14.07
2019-05-19T04:58:02.776Z,14.18
2019-05-19T04:59:02.794Z,14.19
2019-05-19T05:00:02.852Z,14.23
2019-05-19T05:01:02.894Z,14.26
2019-05-19T05:02:02.908Z,14.31
2019-05-19T05:03:02.964Z,14.40
2019-05-19T05:04:02.962Z,14.41
2019-05-19T05:05:02.969Z,14.49
2019-05-19T05:06:02.961Z,14.58
2019-05-19T05:07:02.962Z,14.55
2019-05-19T05:08:02.989Z,14.59
2019-05-19T05:09:03.018Z,14.63
2019-05-19T05:10:03.025Z,14.62
2019-05-19T05:11:03.045Z,14.73
2019-05-19T05:12:03.064Z,14.82
2019-05-19T05:13:03.105Z,14.82
2019-05-19T05:14:03.106Z,14.89
2019-05-19T05:15:03.129Z,15.00
2019-05-19T05:16:03.147Z,15.05
2019-05-19T05:17:03.168Z,15.10
2019-05-19T05:18:03.193Z,15.19
2019-05-19T05:19:03.208Z,15.25
2019-05-19T05:20:03.232Z,15.26
2019-05-19T05:21:03.254Z,15.36
2019-05-19T05:22:03.289Z,15.37
2019-05-19T05:23:03.295Z,15.45
2019-05-19T05:24:03.315Z,15.59
2019-05-19T05:25:03.366Z,15.57
2019-05-19T05:26:03.360Z,15.66
2019-05-19T05:27:03.386Z,15.69
2019-05-19T05:28:03.409Z,15.76
2019-05-19T05:29:03.420Z,15.87
2019-05-19T05:30:03.445Z,15.91
2019-05-19T05:31:03.467Z,15.99
2019-05-19T05:32:03.488Z,16.00
2019-05-19T05:33:03.510Z,16.09
2019-05-19T05:34:03.531Z,16.09
2019-05-19T05:35:03.552Z,16.13
2019-05-19T05:36:03.574Z,16.18
2019-05-19T05:37:03.595Z,16.21
2019-05-19T05:38:03.616Z,16.31
2019-05-19T05:39:03.641Z,16.31
2019-05-19T05:40:03.661Z,16.34
2019-05-19T05:41:03.684Z,16.37
2019-05-19T05:42:03.706Z,16.39
2019-05-19T05:43:03.727Z,16.40
2019-05-19T05:44:03.753Z,16.41
2019-05-19T05:45:03.771Z,16.43
2019-05-19T05:46:03.791Z,16.46
2019-05-19T05:47:03.814Z,16.57
2019-05-19T05:48:03.834Z,16.65
2019-05-19T05:49:03.857Z,16.73
2019-05-19T05:50:03.880Z,16.80
2019-05-19T05:51:03.900Z,16.80
2019-05-19T05:52:03.924Z,16.84
2019-05-19T05:53:04.001Z,16.87
2019-05-19T05:54:03.970Z,16.91
2019-05-19T05:55:03.990Z,17.02
2019-05-19T05:56:04.010Z,16.99
2019-05-19T05:57:04.033Z,16.99
2019-05-19T05:58:04.059Z,17.09
2019-05-19T05:59:04.081Z,17.14
2019-05-19T06:00:04.100Z,17.22
2019-05-19T06:01:04.123Z,17.27
2019-05-19T06:02:04.149Z,17.34
2019-05-19T06:03:04.167Z,17.37
2019-05-19T06:04:04.192Z,17.41
2019-05-19T06:05:04.213Z,17.39
2019-05-19T06:06:04.234Z,17.52
2019-05-19T06:07:04.255Z,17.54
2019-05-19T06:08:04.279Z,17.57
2019-05-19T06:09:04.300Z,17.56
2019-05-19T06:10:04.323Z,17.56
2019-05-19T06:11:04.347Z,17.53
2019-05-19T06:12:04.367Z,17.63
2019-05-19T06:13:04.390Z,17.66
2019-05-19T06:14:04.415Z,17.65
2019-05-19T06:15:04.435Z,17.73
2019-05-19T06:16:04.458Z,17.76
2019-05-19T06:17:04.482Z,17.84
2019-05-19T06:18:04.505Z,17.90
2019-05-19T06:19:04.524Z,17.98
2019-05-19T06:20:04.704Z,18.06
2019-05-19T06:21:04.570Z,18.15
2019-05-19T06:22:04.593Z,18.18
2019-05-19T06:23:04.615Z,18.26
2019-05-19T06:24:04.639Z,18.37
2019-05-19T06:25:04.662Z,18.36
2019-05-19T06:26:04.692Z,18.33
2019-05-19T06:27:04.720Z,18.42
2019-05-19T06:28:04.799Z,18.46
2019-05-19T06:29:04.792Z,18.66
2019-05-19T06:30:06.651Z,18.78
2019-05-19T06:31:04.857Z,18.91
2019-05-19T06:32:04.853Z,19.01
2019-05-19T06:33:04.844Z,19.16
2019-05-19T06:34:04.869Z,19.23
2019-05-19T06:35:04.893Z,19.39
2019-05-19T06:36:04.916Z,19.41
2019-05-19T06:37:04.939Z,19.52
2019-05-19T06:38:04.961Z,19.66
2019-05-19T06:39:04.992Z,19.79
2019-05-19T06:40:05.011Z,20.02
2019-05-19T06:41:05.035Z,20.21
2019-05-19T06:42:05.060Z,20.32
2019-05-19T06:43:05.086Z,20.55
2019-05-19T06:44:05.109Z,20.70
2019-05-19T06:45:05.136Z,20.78
2019-05-19T06:46:05.170Z,20.92
2019-05-19T06:47:05.185Z,21.14
2019-05-19T06:48:05.220Z,21.22
2019-05-19T06:49:05.236Z,21.47
2019-05-19T06:50:05.263Z,21.47
2019-05-19T06:51:05.293Z,21.68
2019-05-19T06:52:05.315Z,21.88
2019-05-19T06:53:14.048Z,22.07
2019-05-19T06:54:05.366Z,22.15
2019-05-19T06:55:05.394Z,22.40
2019-05-19T06:56:05.420Z,22.63
2019-05-19T06:57:05.446Z,22.81
2019-05-19T06:58:05.474Z,22.96
2019-05-19T06:59:05.507Z,23.06
2019-05-19T07:00:05.542Z,23.20
2019-05-19T07:01:05.557Z,23.23
2019-05-19T07:02:05.585Z,23.32
2019-05-19T07:03:05.614Z,23.54
2019-05-19T07:04:05.639Z,23.70
2019-05-19T07:05:05.671Z,23.88
2019-05-19T07:06:05.699Z,24.04
2019-05-19T07:07:05.738Z,24.36
2019-05-19T07:08:05.755Z,24.43
2019-05-19T07:09:05.796Z,24.68
2019-05-19T07:10:05.814Z,24.86
2019-05-19T07:11:05.842Z,24.96
2019-05-19T07:12:05.872Z,25.01
2019-05-19T07:13:05.902Z,25.16
2019-05-19T07:14:05.933Z,25.18
2019-05-19T07:15:05.962Z,25.34
2019-05-19T07:16:06.020Z,25.41
2019-05-19T07:17:06.021Z,25.44
2019-05-19T07:18:06.056Z,25.52
2019-05-19T07:19:06.094Z,25.62
2019-05-19T07:20:06.112Z,25.77
2019-05-19T07:21:06.141Z,25.83
2019-05-19T07:22:06.175Z,25.86
2019-05-19T07:23:06.203Z,25.96
2019-05-19T07:24:06.234Z,25.95
2019-05-19T07:25:06.265Z,26.03
2019-05-19T07:26:06.306Z,26.08
2019-05-19T07:27:06.326Z,26.18
2019-05-19T07:28:06.355Z,26.24
2019-05-19T07:29:06.385Z,26.55
2019-05-19T07:30:06.416Z,26.51
2019-05-19T07:31:06.448Z,26.53
2019-05-19T07:32:06.479Z,26.60
2019-05-19T07:33:06.514Z,26.79
2019-05-19T07:34:06.541Z,26.83
2019-05-19T07:35:06.575Z,26.93
2019-05-19T07:36:06.608Z,27.01
2019-05-19T07:37:06.711Z,27.19
2019-05-19T07:38:07.527Z,27.23
2019-05-19T07:39:06.782Z,27.33
2019-05-19T07:40:06.768Z,27.26
2019-05-19T07:41:06.770Z,27.45
2019-05-19T07:42:06.798Z,27.47
2019-05-19T07:43:06.841Z,27.67
2019-05-19T07:44:06.867Z,27.61
2019-05-19T07:45:06.902Z,27.75
2019-05-19T07:46:06.930Z,27.91
2019-05-19T07:47:06.963Z,28.01
2019-05-19T07:48:06.994Z,28.10
2019-05-19T07:49:07.026Z,28.09
2019-05-19T07:50:07.061Z,28.09
2019-05-19T07:51:07.093Z,28.06
2019-05-19T07:52:07.128Z,28.09
2019-05-19T07:53:07.162Z,28.22
2019-05-19T07:54:07.195Z,28.13
2019-05-19T07:55:07.230Z,28.18
2019-05-19T07:56:07.261Z,28.19
2019-05-19T07:57:07.298Z,28.04
2019-05-19T07:58:07.335Z,28.09
2019-05-19T07:59:08.035Z,28.01
2019-05-19T08:00:07.475Z,28.08
2019-05-19T08:01:07.432Z,28.08
2019-05-19T08:02:07.465Z,28.10
2019-05-19T08:03:07.500Z,28.04
2019-05-19T08:04:07.534Z,28.06
2019-05-19T08:05:07.578Z,28.12
2019-05-19T08:06:07.687Z,28.12
2019-05-19T08:07:07.636Z,28.12
2019-05-19T08:08:07.676Z,28.23
2019-05-19T08:09:07.710Z,28.27
2019-05-19T08:10:07.736Z,28.23
2019-05-19T08:11:07.772Z,28.25
2019-05-19T08:12:07.806Z,28.23
2019-05-19T08:13:07.842Z,28.25
2019-05-19T08:14:07.876Z,28.34
2019-05-19T08:15:07.920Z,28.23
2019-05-19T08:16:07.947Z,28.38
2019-05-19T08:17:07.980Z,28.45
2019-05-19T08:18:08.015Z,28.43
2019-05-19T08:19:08.049Z,28.50
2019-05-19T08:20:08.083Z,28.67
2019-05-19T08:21:08.119Z,28.68
2019-05-19T08:22:08.153Z,28.62
2019-05-19T08:23:08.196Z,28.59
2019-05-19T08:24:08.223Z,28.68
2019-05-19T08:25:08.260Z,28.60
2019-05-19T08:26:08.294Z,28.65
2019-05-19T08:27:08.337Z,28.67
2019-05-19T08:28:09.154Z,28.67
2019-05-19T08:29:08.399Z,28.68
2019-05-19T08:30:08.435Z,28.65
2019-05-19T08:31:08.470Z,28.64
2019-05-19T08:32:08.510Z,28.60
2019-05-19T08:33:08.541Z,28.60
2019-05-19T08:34:08.763Z,28.57
2019-05-19T08:35:08.646Z,28.57
2019-05-19T08:36:08.706Z,28.35
2019-05-19T08:37:08.717Z,28.30
2019-05-19T08:38:08.711Z,28.19
2019-05-19T08:39:08.746Z,28.04
2019-05-19T08:40:08.779Z,28.06
2019-05-19T08:41:08.823Z,27.94
2019-05-19T08:42:08.847Z,27.94
2019-05-19T08:43:08.883Z,27.91
2019-05-19T08:44:08.915Z,27.88
2019-05-19T08:45:08.954Z,27.76
2019-05-19T08:46:08.985Z,27.60
2019-05-19T08:47:09.012Z,27.64
2019-05-19T08:48:09.050Z,27.61
2019-05-19T08:49:09.080Z,27.52
2019-05-19T08:50:09.114Z,27.41
2019-05-19T08:51:09.145Z,27.43
2019-05-19T08:52:09.180Z,27.37
2019-05-19T08:53:09.208Z,27.44
2019-05-19T08:54:14.879Z,27.53
2019-05-19T08:55:09.271Z,27.66
2019-05-19T08:56:09.307Z,27.76
2019-05-19T08:57:09.338Z,27.75
2019-05-19T08:58:09.378Z,27.78
2019-05-19T08:59:09.408Z,27.75
2019-05-19T09:00:09.433Z,27.79
2019-05-19T09:01:09.473Z,27.85
2019-05-19T09:02:09.504Z,27.91
2019-05-19T09:03:09.543Z,27.94
2019-05-19T09:04:09.569Z,28.00
2019-05-19T09:05:09.606Z,28.00
2019-05-19T09:06:09.636Z,27.90
2019-05-19T09:07:09.669Z,27.86
2019-05-19T09:08:09.701Z,27.91
2019-05-19T09:09:09.736Z,27.98
2019-05-19T09:10:09.776Z,27.88
2019-05-19T09:11:09.802Z,27.88
2019-05-19T09:12:09.835Z,28.04
2019-05-19T09:13:09.870Z,28.06
2019-05-19T09:14:09.903Z,28.12
2019-05-19T09:15:09.940Z,28.27
2019-05-19T09:16:09.976Z,28.25
2019-05-19T09:17:10.021Z,28.27
2019-05-19T09:18:10.036Z,28.19
2019-05-19T09:19:10.070Z,28.25
2019-05-19T09:20:10.105Z,28.25
2019-05-19T09:21:10.140Z,28.28
2019-05-19T09:22:10.185Z,28.43
2019-05-19T09:23:10.206Z,28.37
2019-05-19T09:24:10.243Z,28.30
2019-05-19T09:25:10.274Z,28.20
2019-05-19T09:26:10.311Z,28.19
2019-05-19T09:27:10.344Z,28.16
2019-05-19T09:28:10.373Z,28.18
2019-05-19T09:29:10.409Z,28.23
2019-05-19T09:30:10.446Z,28.27
2019-05-19T09:31:10.486Z,28.27
2019-05-19T09:32:10.563Z,28.38
2019-05-19T09:33:10.563Z,28.41
2019-05-19T09:34:10.633Z,28.43
2019-05-19T09:35:10.638Z,28.43
2019-05-19T09:36:10.642Z,28.50
2019-05-19T09:37:10.676Z,28.62
2019-05-19T09:38:10.717Z,28.71
2019-05-19T09:39:10.741Z,28.82
2019-05-19T09:40:10.784Z,28.74
2019-05-19T09:41:10.809Z,28.80
2019-05-19T09:42:10.845Z,28.89
2019-05-19T09:43:10.876Z,28.94
2019-05-19T09:44:10.911Z,29.06
2019-05-19T09:45:10.977Z,29.05
2019-05-19T09:46:13.768Z,29.30
2019-05-19T09:47:11.014Z,29.27
2019-05-19T09:48:11.048Z,29.28
2019-05-19T09:49:11.081Z,29.27
2019-05-19T09:50:11.117Z,29.40
2019-05-19T09:51:11.149Z,29.53
2019-05-19T09:52:11.199Z,29.59
2019-05-19T09:53:11.217Z,29.71
2019-05-19T09:54:11.253Z,29.80
2019-05-19T09:55:11.320Z,29.98
2019-05-19T09:56:11.316Z,29.92
2019-05-19T09:57:11.360Z,29.90
2019-05-19T09:58:14.360Z,29.84
2019-05-19T09:59:11.425Z,29.90
2019-05-19T10:00:11.458Z,30.03
2019-05-19T10:01:11.495Z,30.18
2019-05-19T10:02:11.530Z,30.33
2019-05-19T10:03:11.566Z,30.44
2019-05-19T10:04:11.643Z,30.61
2019-05-19T10:05:11.636Z,30.69
2019-05-19T10:06:11.675Z,30.88
2019-05-19T10:07:11.906Z,31.05
2019-05-19T10:08:11.749Z,31.07
2019-05-19T10:09:11.786Z,31.13
2019-05-19T10:10:11.828Z,31.20
2019-05-19T10:11:11.868Z,31.33
2019-05-19T10:12:11.899Z,31.41
2019-05-19T10:13:11.938Z,31.59
2019-05-19T10:14:11.976Z,31.67
2019-05-19T10:15:12.015Z,31.82
2019-05-19T10:16:12.053Z,32.00
2019-05-19T10:17:12.094Z,31.95
2019-05-19T10:18:12.128Z,32.11
2019-05-19T10:19:12.170Z,32.27
2019-05-19T10:20:12.208Z,32.35
2019-05-19T10:21:12.247Z,32.37
2019-05-19T10:22:12.287Z,32.29
2019-05-19T10:23:12.327Z,32.39
2019-05-19T10:24:12.363Z,32.34
2019-05-19T10:25:21.607Z,32.35
2019-05-19T10:26:12.485Z,32.29
2019-05-19T10:27:12.565Z,32.27
2019-05-19T10:28:12.570Z,32.35
2019-05-19T10:29:12.560Z,32.30
2019-05-19T10:30:12.597Z,32.45
2019-05-19T10:31:12.635Z,32.49
2019-05-19T10:32:12.678Z,32.49
2019-05-19T10:33:12.711Z,32.66
2019-05-19T10:34:12.753Z,32.68
2019-05-19T10:35:12.799Z,32.76
2019-05-19T10:36:12.832Z,32.86
2019-05-19T10:37:12.874Z,33.08
2019-05-19T10:38:12.911Z,33.22
2019-05-19T10:39:12.950Z,33.40
2019-05-19T10:40:12.989Z,33.50
2019-05-19T10:41:13.035Z,33.63
2019-05-19T10:42:13.068Z,33.81
2019-05-19T10:43:13.106Z,33.94
2019-05-19T10:44:13.148Z,33.94
2019-05-19T10:45:13.192Z,34.09
2019-05-19T10:46:13.227Z,34.18
2019-05-19T10:47:13.267Z,34.22
2019-05-19T10:48:13.308Z,34.46
2019-05-19T10:49:13.348Z,34.62
2019-05-19T10:50:13.397Z,34.76
2019-05-19T10:51:13.430Z,34.78
2019-05-19T10:52:13.467Z,34.79
2019-05-19T10:53:13.514Z,34.83
2019-05-19T10:54:13.548Z,34.78
2019-05-19T10:55:13.587Z,34.71
2019-05-19T10:56:13.627Z,34.60
2019-05-19T10:57:13.666Z,34.37
2019-05-19T10:58:13.710Z,34.28
2019-05-19T10:59:13.740Z,34.28
2019-05-19T11:00:13.780Z,34.37
2019-05-19T11:01:13.822Z,34.48
2019-05-19T11:02:13.859Z,34.33
2019-05-19T11:03:13.895Z,34.40
2019-05-19T11:04:13.934Z,34.60
2019-05-19T11:05:13.972Z,34.63
2019-05-19T11:06:14.011Z,34.47
2019-05-19T11:07:14.047Z,34.25
2019-05-19T11:08:14.081Z,34.11
2019-05-19T11:09:14.122Z,34.07
2019-05-19T11:10:14.160Z,34.10
2019-05-19T11:11:14.198Z,34.03
2019-05-19T11:12:14.233Z,33.95
2019-05-19T11:13:14.272Z,33.79
2019-05-19T11:14:14.356Z,33.63
2019-05-19T11:15:14.349Z,33.40
2019-05-19T11:16:14.449Z,33.00
2019-05-19T11:17:14.438Z,32.76
2019-05-19T11:18:14.507Z,32.66
2019-05-19T11:19:14.511Z,32.49
2019-05-19T11:20:14.520Z,32.31
2019-05-19T11:21:14.553Z,32.04
2019-05-19T11:22:14.593Z,31.92
2019-05-19T11:23:14.624Z,31.69
2019-05-19T11:24:14.656Z,31.44
2019-05-19T11:25:14.689Z,31.29
2019-05-19T11:26:14.750Z,31.23
2019-05-19T11:27:14.758Z,31.10
2019-05-19T11:28:14.793Z,31.08
2019-05-19T11:29:14.822Z,31.05
2019-05-19T11:30:14.856Z,30.86
2019-05-19T11:31:14.889Z,30.77
2019-05-19T11:32:14.921Z,30.70
2019-05-19T11:33:14.955Z,30.44
2019-05-19T11:34:15.017Z,30.46
2019-05-19T11:35:15.017Z,30.49
2019-05-19T11:36:15.048Z,30.71
2019-05-19T11:37:15.079Z,30.96
2019-05-19T11:38:15.116Z,31.18
2019-05-19T11:39:15.151Z,31.22
2019-05-19T11:40:15.183Z,31.42
2019-05-19T11:41:15.213Z,31.74
2019-05-19T11:42:15.252Z,31.90
2019-05-19T11:43:15.283Z,32.22
2019-05-19T11:44:15.318Z,32.35
2019-05-19T11:45:15.356Z,32.41
2019-05-19T11:46:15.387Z,32.41
2019-05-19T11:47:15.425Z,32.60
2019-05-19T11:48:15.461Z,32.81
2019-05-19T11:49:15.497Z,33.00
2019-05-19T11:50:15.531Z,33.03
2019-05-19T11:51:15.569Z,33.03
2019-05-19T11:52:15.602Z,33.10
2019-05-19T11:53:15.645Z,33.09
2019-05-19T11:54:15.676Z,33.00
2019-05-19T11:55:15.710Z,33.01
2019-05-19T11:56:15.750Z,32.98
2019-05-19T11:57:15.785Z,32.73
2019-05-19T11:58:15.817Z,32.75
2019-05-19T11:59:15.856Z,32.64
2019-05-19T12:00:15.889Z,32.49
2019-05-19T12:01:15.923Z,32.31
2019-05-19T12:02:15.957Z,32.19
2019-05-19T12:03:15.991Z,32.16
2019-05-19T12:04:16.027Z,32.04
2019-05-19T12:05:16.060Z,32.09
2019-05-19T12:06:16.094Z,32.15
2019-05-19T12:07:16.127Z,32.24
2019-05-19T12:08:16.169Z,32.44
2019-05-19T12:09:16.195Z,32.68
2019-05-19T12:10:16.230Z,32.72
2019-05-19T12:11:16.264Z,32.94
2019-05-19T12:12:16.342Z,32.98
2019-05-19T12:13:16.371Z,33.19
2019-05-19T12:14:16.438Z,33.28
2019-05-19T12:15:16.432Z,33.40
2019-05-19T12:16:16.444Z,33.55
2019-05-19T12:17:16.478Z,33.65
2019-05-19T12:18:16.514Z,33.81
2019-05-19T12:19:16.554Z,34.03
2019-05-19T12:20:16.588Z,34.25
2019-05-19T12:21:16.624Z,34.48
2019-05-19T12:22:16.663Z,34.70
2019-05-19T12:23:16.701Z,34.81
2019-05-19T12:24:16.736Z,34.65
2019-05-19T12:25:16.777Z,34.62
2019-05-19T12:26:23.152Z,34.62
2019-05-19T12:27:16.851Z,34.62
2019-05-19T12:28:16.889Z,34.85
2019-05-19T12:29:16.936Z,34.96
2019-05-19T12:30:16.966Z,35.03
2019-05-19T12:31:17.003Z,35.04
2019-05-19T12:32:17.040Z,35.15
2019-05-19T12:33:17.080Z,34.96
2019-05-19T12:34:17.114Z,35.10
2019-05-19T12:35:17.156Z,35.37
2019-05-19T12:36:17.190Z,35.22
2019-05-19T12:37:17.231Z,35.42
2019-05-19T12:38:17.267Z,35.60
2019-05-19T12:39:17.306Z,35.74
2019-05-19T12:40:17.348Z,35.82
2019-05-19T12:41:17.384Z,35.98
2019-05-19T12:42:17.421Z,36.18
2019-05-19T12:43:17.459Z,36.22
2019-05-19T12:44:17.515Z,36.25
2019-05-19T12:45:17.538Z,36.60
2019-05-19T12:46:17.576Z,36.73
2019-05-19T12:47:17.616Z,36.82
2019-05-19T12:48:17.657Z,36.76
2019-05-19T12:49:17.702Z,36.81
2019-05-19T12:50:17.734Z,36.88
2019-05-19T12:51:17.774Z,37.07
2019-05-19T12:52:17.813Z,37.09
2019-05-19T12:53:17.855Z,37.19